createdAt,value
2022-10-28T00:00:22.678Z,101687.97
2022-10-28T00:03:19.501Z,101698.72
2022-10-28T00:06:35.759Z,101713.06
2022-10-28T00:09:32.410Z,101698.25
2022-10-28T00:12:29.798Z,101697.53
2022-10-28T00:15:26.811Z,101698.13
2022-10-28T00:18:23.823Z,101692.91
2022-10-28T00:21:25.425Z,101682.13
2022-10-28T00:24:22.556Z,101684.63
2022-10-28T00:27:19.350Z,101690.72
2022-10-28T00:30:16.743Z,101679.16
2022-10-28T00:33:13.717Z,101678.34
2022-10-28T00:36:13.930Z,101681.63
2022-10-28T00:39:13.070Z,101670.09
2022-10-28T00:42:09.995Z,101663.94
2022-10-28T00:45:07.512Z,101672.56
2022-10-28T00:48:04.716Z,101665.91
2022-10-28T00:51:01.586Z,101662.69
2022-10-28T00:53:58.458Z,101660.63
2022-10-28T00:56:56.466Z,101663.53
2022-10-28T00:59:53.754Z,101652.63
2022-10-28T01:02:51.325Z,101658.47
2022-10-28T01:05:48.859Z,101659.69
2022-10-28T01:08:45.502Z,101655.59
2022-10-28T01:11:55.079Z,101646.97
2022-10-28T01:14:55.841Z,101644.00
2022-10-28T01:18:16.923Z,101648.00
2022-10-28T01:21:16.321Z,101632.38
2022-10-28T01:24:38.622Z,101641.38
2022-10-28T01:27:38.741Z,101628.69
2022-10-28T01:31:06.846Z,101623.28
2022-10-28T01:34:03.674Z,101623.69
2022-10-28T01:37:02.073Z,101612.66
2022-10-28T01:40:12.342Z,101616.38
2022-10-28T01:43:46.171Z,101620.06
2022-10-28T01:47:12.325Z,101617.59
2022-10-28T01:50:19.363Z,101614.47
2022-10-28T01:53:19.035Z,101608.38
2022-10-28T01:56:17.565Z,101611.16
2022-10-28T01:59:20.340Z,101602.75
2022-10-28T02:02:17.878Z,101603.84
2022-10-28T02:05:42.441Z,101598.94
2022-10-28T02:09:01.070Z,101595.22
2022-10-28T02:12:00.668Z,101585.03
2022-10-28T02:15:22.586Z,101582.50
2022-10-28T02:18:24.558Z,101587.03
2022-10-28T02:22:05.537Z,101595.41
2022-10-28T02:25:09.325Z,101589.78
2022-10-28T02:31:42.377Z,101575.69
2022-10-28T02:34:41.031Z,101569.13
2022-10-28T02:37:37.886Z,101574.09
2022-10-28T02:40:34.977Z,101561.41
2022-10-28T02:43:32.771Z,101561.28
2022-10-28T02:46:30.009Z,101555.25
2022-10-28T02:49:26.959Z,101550.19
2022-10-28T02:52:24.078Z,101551.53
2022-10-28T02:55:21.247Z,101546.28
2022-10-28T02:58:18.964Z,101550.31
2022-10-28T03:01:15.545Z,101534.63
2022-10-28T03:04:12.876Z,101540.22
2022-10-28T03:07:09.623Z,101528.28
2022-10-28T03:10:06.904Z,101530.72
2022-10-28T03:13:04.022Z,101527.66
2022-10-28T03:16:01.089Z,101521.97
2022-10-28T03:18:58.073Z,101521.22
2022-10-28T03:21:55.206Z,101515.44
2022-10-28T03:24:53.227Z,101515.41
2022-10-28T03:27:50.792Z,101511.56
2022-10-28T03:30:47.712Z,101524.28
2022-10-28T03:33:44.541Z,101513.72
2022-10-28T03:36:41.899Z,101518.19
2022-10-28T03:39:38.956Z,101523.28
2022-10-28T03:42:38.862Z,101518.22
2022-10-28T03:45:37.905Z,101512.44
2022-10-28T03:48:35.257Z,101509.47
2022-10-28T03:51:32.462Z,101507.72
2022-10-28T03:54:29.841Z,101510.81
2022-10-28T03:57:30.479Z,101503.03
2022-10-28T04:00:28.521Z,101501.72
2022-10-28T04:03:25.805Z,101504.28
2022-10-28T04:06:23.015Z,101507.13
2022-10-28T04:09:20.013Z,101495.66
2022-10-28T04:12:17.981Z,101494.75
2022-10-28T04:15:14.477Z,101497.19
2022-10-28T04:18:12.337Z,101498.06
2022-10-28T04:21:09.785Z,101505.50
2022-10-28T04:24:06.640Z,101502.25
2022-10-28T04:27:03.919Z,101505.81
2022-10-28T04:30:01.022Z,101505.28
2022-10-28T04:32:57.581Z,101505.66
2022-10-28T04:35:54.976Z,101512.53
2022-10-28T04:38:52.082Z,101507.28
2022-10-28T04:41:48.668Z,101503.69
2022-10-28T04:44:46.038Z,101510.41
2022-10-28T04:47:43.118Z,101513.84
2022-10-28T04:50:39.921Z,101503.25
2022-10-28T04:53:41.042Z,101499.03
2022-10-28T04:56:37.681Z,101501.03
2022-10-28T04:59:34.957Z,101503.88
2022-10-28T05:02:31.847Z,101502.19
2022-10-28T05:05:28.702Z,101507.97
2022-10-28T05:08:26.135Z,101506.75
2022-10-28T05:11:23.292Z,101497.41
2022-10-28T05:14:20.867Z,101492.50
2022-10-28T05:17:18.066Z,101487.47
2022-10-28T05:20:16.733Z,101480.56
2022-10-28T05:23:13.890Z,101484.94
2022-10-28T05:26:10.973Z,101483.34
2022-10-28T05:29:07.847Z,101495.41
2022-10-28T05:35:07.448Z,101504.50
2022-10-28T05:38:05.241Z,101488.56
2022-10-28T05:41:01.877Z,101494.91
2022-10-28T05:43:58.597Z,101486.16
2022-10-28T05:46:56.629Z,101480.56
2022-10-28T05:49:54.192Z,101477.16
2022-10-28T05:52:52.266Z,101490.97
2022-10-28T05:55:49.068Z,101490.72
2022-10-28T05:58:46.184Z,101482.03
2022-10-28T06:01:43.013Z,101480.22
2022-10-28T06:04:39.971Z,101489.19
2022-10-28T06:07:37.542Z,101481.78
2022-10-28T06:10:35.019Z,101479.31
2022-10-28T06:13:30.359Z,101472.50
2022-10-28T06:16:27.361Z,101467.56
2022-10-28T06:19:24.310Z,101469.16
2022-10-28T06:22:21.699Z,101481.31
2022-10-28T06:25:19.128Z,101477.34
2022-10-28T06:28:16.342Z,101477.72
2022-10-28T06:31:13.429Z,101488.28
2022-10-28T06:34:10.771Z,101486.25
2022-10-28T06:37:09.163Z,101482.97
2022-10-28T06:40:07.427Z,101500.00
2022-10-28T06:43:06.271Z,101489.91
2022-10-28T06:46:04.248Z,101496.06
2022-10-28T06:49:03.309Z,101498.84
2022-10-28T06:52:00.990Z,101498.91
2022-10-28T06:54:57.813Z,101500.88
2022-10-28T06:57:55.127Z,101496.53
2022-10-28T07:00:52.443Z,101503.06
2022-10-28T07:03:50.369Z,101504.16
2022-10-28T07:06:49.921Z,101501.63
2022-10-28T07:09:49.041Z,101507.63
2022-10-28T07:12:46.192Z,101516.19
2022-10-28T07:15:43.177Z,101506.22
2022-10-28T07:18:40.368Z,101516.91
2022-10-28T07:21:36.831Z,101516.41
2022-10-28T07:24:34.090Z,101509.13
2022-10-28T07:27:30.807Z,101514.06
2022-10-28T07:30:28.271Z,101517.88
2022-10-28T07:33:25.211Z,101517.75
2022-10-28T07:36:22.209Z,101522.03
2022-10-28T07:39:19.172Z,101518.72
2022-10-28T07:42:16.099Z,101524.69
2022-10-28T07:45:13.318Z,101521.25
2022-10-28T07:48:09.943Z,101527.75
2022-10-28T07:51:07.665Z,101523.28
2022-10-28T07:54:05.230Z,101527.41
2022-10-28T07:57:02.333Z,101525.25
2022-10-28T07:59:58.909Z,101517.31
2022-10-28T08:02:55.921Z,101533.91
2022-10-28T08:06:01.768Z,101526.34
2022-10-28T08:08:59.022Z,101538.41
2022-10-28T08:11:57.153Z,101531.31
2022-10-28T08:14:54.334Z,101531.16
2022-10-28T08:17:52.754Z,101534.31
2022-10-28T08:20:50.232Z,101541.03
2022-10-28T08:23:47.253Z,101539.72
2022-10-28T08:26:43.978Z,101538.75
2022-10-28T08:29:40.894Z,101537.59
2022-10-28T08:32:38.041Z,101541.03
2022-10-28T08:35:35.998Z,101542.84
2022-10-28T08:38:32.995Z,101541.88
2022-10-28T08:41:51.891Z,101534.19
2022-10-28T08:44:51.851Z,101530.16
2022-10-28T08:48:04.262Z,101531.47
2022-10-28T08:51:16.305Z,101525.75
2022-10-28T08:54:15.324Z,101531.91
2022-10-28T08:57:18.045Z,101520.47
2022-10-28T09:00:43.348Z,101532.91
2022-10-28T09:03:40.910Z,101530.88
2022-10-28T09:06:38.280Z,101525.50
2022-10-28T09:09:35.386Z,101527.19
2022-10-28T09:12:54.084Z,101519.00
2022-10-28T09:16:07.420Z,101516.53
2022-10-28T09:19:17.329Z,101523.91
2022-10-28T09:22:24.254Z,101521.91
2022-10-28T09:25:39.624Z,101512.38
2022-10-28T09:29:14.909Z,101520.56
2022-10-28T09:32:14.646Z,101520.53
2022-10-28T09:35:14.441Z,101522.19
2022-10-28T09:38:35.698Z,101513.13
2022-10-28T09:41:34.808Z,101508.56
2022-10-28T09:44:53.801Z,101503.63
2022-10-28T09:48:00.712Z,101495.00
2022-10-28T09:50:58.595Z,101499.53
2022-10-28T09:53:59.792Z,101511.38
2022-10-28T09:56:57.328Z,101519.53
2022-10-28T09:59:54.365Z,101521.13
2022-10-28T10:02:53.160Z,101516.66
2022-10-28T10:05:51.557Z,101519.75
2022-10-28T10:08:48.947Z,101514.00
2022-10-28T10:11:47.292Z,101502.13
2022-10-28T10:14:47.691Z,101508.75
2022-10-28T10:17:45.980Z,101506.75
2022-10-28T10:20:53.649Z,101521.78
2022-10-28T10:23:51.032Z,101520.88
2022-10-28T10:26:47.800Z,101509.78
2022-10-28T10:29:49.649Z,101516.81
2022-10-28T10:32:47.254Z,101506.16
2022-10-28T10:35:44.662Z,101507.91
2022-10-28T10:38:55.395Z,101504.94
2022-10-28T10:41:51.948Z,101503.75
2022-10-28T10:44:49.400Z,101503.63
2022-10-28T10:47:46.282Z,101505.75
2022-10-28T10:50:43.984Z,101504.16
2022-10-28T10:53:41.131Z,101497.63
2022-10-28T10:56:38.088Z,101505.72
2022-10-28T10:59:34.970Z,101486.34
2022-10-28T11:02:35.157Z,101490.44
2022-10-28T11:05:37.745Z,101496.91
2022-10-28T11:08:42.786Z,101487.09
2022-10-28T11:11:40.944Z,101497.34
2022-10-28T11:14:38.547Z,101482.94
2022-10-28T11:17:35.319Z,101479.81
2022-10-28T11:20:56.553Z,101492.03
2022-10-28T11:24:01.466Z,101485.94
2022-10-28T11:27:13.419Z,101487.78
2022-10-28T11:30:13.378Z,101487.25
2022-10-28T11:33:30.005Z,101482.44
2022-10-28T11:36:58.706Z,101494.94
2022-10-28T11:40:15.686Z,101480.63
2022-10-28T11:43:23.269Z,101476.34
2022-10-28T11:46:41.862Z,101466.28
2022-10-28T11:50:02.727Z,101463.09
2022-10-28T11:53:27.335Z,101458.88
2022-10-28T11:56:31.153Z,101457.22
2022-10-28T11:59:52.554Z,101447.88
2022-10-28T12:03:15.327Z,101447.28
2022-10-28T12:06:34.279Z,101450.06
2022-10-28T12:10:01.854Z,101449.56
2022-10-28T12:13:21.285Z,101445.09
2022-10-28T12:16:23.290Z,101442.03
2022-10-28T12:19:27.990Z,101436.88
2022-10-28T12:22:31.208Z,101430.47
2022-10-28T12:25:29.896Z,101434.47
2022-10-28T12:28:35.795Z,101420.59
2022-10-28T12:31:38.505Z,101406.34
2022-10-28T12:34:40.549Z,101414.50
2022-10-28T12:37:42.134Z,101428.13
2022-10-28T12:40:50.170Z,101405.75
2022-10-28T12:43:52.279Z,101410.41
2022-10-28T12:47:07.187Z,101411.59
2022-10-28T12:50:27.433Z,101427.81
2022-10-28T12:53:35.598Z,101424.69
2022-10-28T12:56:35.645Z,101403.97
2022-10-28T12:59:37.040Z,101397.94
2022-10-28T13:03:13.298Z,101400.16
2022-10-28T13:06:28.317Z,101408.19
2022-10-28T13:09:40.388Z,101405.44
2022-10-28T13:13:20.236Z,101394.88
2022-10-28T13:16:41.500Z,101400.16
2022-10-28T13:19:41.433Z,101388.47
2022-10-28T13:22:53.983Z,101392.25
2022-10-28T13:26:01.386Z,101378.59
2022-10-28T13:28:59.463Z,101383.00
2022-10-28T13:31:56.197Z,101385.91
2022-10-28T13:34:53.445Z,101388.63
2022-10-28T13:37:51.369Z,101373.84
2022-10-28T13:41:00.404Z,101375.25
2022-10-28T13:43:58.933Z,101380.75
2022-10-28T13:47:00.520Z,101381.03
2022-10-28T13:50:05.782Z,101387.22
2022-10-28T13:53:24.796Z,101385.22
2022-10-28T13:56:35.931Z,101384.06
2022-10-28T13:59:41.005Z,101378.69
2022-10-28T14:02:42.528Z,101396.75
2022-10-28T14:05:39.582Z,101396.41
2022-10-28T14:08:40.304Z,101393.06
2022-10-28T14:11:37.372Z,101397.19
2022-10-28T14:14:34.497Z,101391.00
2022-10-28T14:17:41.926Z,101396.50
2022-10-28T14:20:48.209Z,101395.47
2022-10-28T14:23:44.883Z,101401.19
2022-10-28T14:27:04.006Z,101419.94
2022-10-28T14:30:01.516Z,101422.00
2022-10-28T14:33:02.431Z,101415.00
2022-10-28T14:36:11.012Z,101409.25
2022-10-28T14:39:23.550Z,101421.22
2022-10-28T14:46:05.678Z,101416.03
2022-10-28T14:49:03.362Z,101418.84
2022-10-28T14:52:05.853Z,101414.22
2022-10-28T14:55:07.120Z,101414.28
2022-10-28T14:58:22.728Z,101419.22
2022-10-28T15:01:26.513Z,101417.22
2022-10-28T15:04:23.963Z,101417.03
2022-10-28T15:07:21.626Z,101411.75
2022-10-28T15:10:19.057Z,101416.34
2022-10-28T15:13:16.862Z,101416.19
2022-10-28T15:16:24.447Z,101409.88
2022-10-28T15:19:24.043Z,101427.75
2022-10-28T15:22:25.485Z,101442.84
2022-10-28T15:25:22.758Z,101433.63
2022-10-28T15:28:19.339Z,101441.88
2022-10-28T15:31:16.806Z,101448.31
2022-10-28T15:34:21.245Z,101457.34
2022-10-28T15:37:19.320Z,101462.72
2022-10-28T15:40:35.439Z,101468.47
2022-10-28T15:43:32.781Z,101465.78
2022-10-28T15:46:29.766Z,101460.53
2022-10-28T15:49:37.534Z,101468.16
2022-10-28T15:52:36.165Z,101465.34
2022-10-28T15:56:02.509Z,101471.19
2022-10-28T15:58:59.651Z,101475.25
2022-10-28T16:01:58.684Z,101482.25
2022-10-28T16:04:56.495Z,101472.75
2022-10-28T16:07:53.796Z,101483.06
2022-10-28T16:11:17.217Z,101483.16
2022-10-28T16:14:34.128Z,101483.13
2022-10-28T16:17:33.565Z,101487.63
2022-10-28T16:20:30.530Z,101493.38
2022-10-28T16:23:35.122Z,101504.09
2022-10-28T16:26:33.369Z,101504.09
2022-10-28T16:29:30.525Z,101507.78
2022-10-28T16:32:29.534Z,101515.97
2022-10-28T16:35:27.365Z,101510.66
2022-10-28T16:38:24.414Z,101513.94
2022-10-28T16:41:21.312Z,101508.59
2022-10-28T16:44:18.653Z,101525.44
2022-10-28T16:47:17.491Z,101517.66
2022-10-28T16:50:15.905Z,101514.44
2022-10-28T16:53:13.763Z,101523.88
2022-10-28T16:56:13.765Z,101523.88
2022-10-28T16:59:14.598Z,101530.84
2022-10-28T17:02:31.444Z,101538.19
2022-10-28T17:05:28.281Z,101545.16
2022-10-28T17:08:48.956Z,101537.38
2022-10-28T17:11:42.712Z,101541.94
2022-10-28T17:14:39.585Z,101559.63
2022-10-28T17:17:36.476Z,101554.72
2022-10-28T17:20:33.792Z,101561.69
2022-10-28T17:23:30.593Z,101571.53
2022-10-28T17:26:30.469Z,101571.53
2022-10-28T17:29:27.978Z,101589.19
2022-10-28T17:32:25.981Z,101581.00
2022-10-28T17:35:23.546Z,101582.63
2022-10-28T17:38:20.693Z,101584.69
2022-10-28T17:41:17.381Z,101591.22
2022-10-28T17:44:14.306Z,101593.66
2022-10-28T17:47:12.852Z,101600.63
2022-10-28T17:50:09.727Z,101611.28
2022-10-28T17:53:06.667Z,101607.59
2022-10-28T17:56:04.516Z,101602.66
2022-10-28T17:59:01.699Z,101612.50
2022-10-28T18:01:58.617Z,101614.16
2022-10-28T18:04:55.428Z,101611.28
2022-10-28T18:07:55.010Z,101625.22
2022-10-28T18:10:56.393Z,101630.13
2022-10-28T18:13:55.264Z,101646.94
2022-10-28T18:16:52.439Z,101644.47
2022-10-28T18:19:49.210Z,101644.84
2022-10-28T18:22:46.344Z,101651.41
2022-10-28T18:25:43.642Z,101664.13
2022-10-28T18:28:42.094Z,101674.34
2022-10-28T18:31:40.630Z,101673.09
2022-10-28T18:34:37.851Z,101666.06
2022-10-28T18:37:34.603Z,101670.22
2022-10-28T18:40:31.639Z,101687.03
2022-10-28T18:43:28.623Z,101675.94
2022-10-28T18:46:26.206Z,101674.63
2022-10-28T18:49:23.584Z,101698.03
2022-10-28T18:52:20.544Z,101700.06
2022-10-28T18:55:17.515Z,101700.88
2022-10-28T18:58:15.271Z,101697.50
2022-10-28T19:01:14.202Z,101703.59
2022-10-28T19:04:11.419Z,101705.63
2022-10-28T19:07:08.783Z,101699.41
2022-10-28T19:10:06.368Z,101714.19
2022-10-28T19:13:03.703Z,101713.72
2022-10-28T19:16:00.678Z,101713.72
2022-10-28T19:18:58.268Z,101727.72
2022-10-28T19:21:57.005Z,101717.88
2022-10-28T19:24:53.810Z,101724.81
2022-10-28T19:27:50.820Z,101729.03
2022-10-28T19:30:47.747Z,101729.44
2022-10-28T19:33:45.315Z,101735.19
2022-10-28T19:36:42.584Z,101738.00
2022-10-28T19:39:39.400Z,101737.22
2022-10-28T19:42:38.913Z,101734.81
2022-10-28T19:45:36.719Z,101745.75
2022-10-28T19:48:33.877Z,101747.00
2022-10-28T19:51:34.997Z,101768.75
2022-10-28T19:54:33.458Z,101787.59
2022-10-28T19:57:31.020Z,101787.22
2022-10-28T20:00:27.448Z,101782.56
2022-10-28T20:03:24.857Z,101782.19
2022-10-28T20:06:23.960Z,101783.94
2022-10-28T20:09:25.037Z,101776.91
2022-10-28T20:12:24.873Z,101777.66
2022-10-28T20:15:21.726Z,101779.72
2022-10-28T20:18:18.759Z,101784.63
2022-10-28T20:21:17.224Z,101793.59
2022-10-28T20:24:15.677Z,101790.75
2022-10-28T20:27:12.942Z,101792.75
2022-10-28T20:30:10.494Z,101796.03
2022-10-28T20:33:07.717Z,101797.88
2022-10-28T20:36:05.437Z,101819.66
2022-10-28T20:39:03.977Z,101809.72
2022-10-28T20:42:00.846Z,101818.41
2022-10-28T20:44:57.787Z,101826.72
2022-10-28T20:47:54.573Z,101822.59
2022-10-28T20:50:52.667Z,101838.56
2022-10-28T20:53:49.453Z,101836.56
2022-10-28T20:56:46.790Z,101842.59
2022-10-28T20:59:43.749Z,101841.78
2022-10-28T21:02:40.817Z,101848.72
2022-10-28T21:05:38.316Z,101848.31
2022-10-28T21:08:35.905Z,101858.50
2022-10-28T21:11:32.616Z,101854.38
2022-10-28T21:14:30.788Z,101853.63
2022-10-28T21:17:27.918Z,101862.06
2022-10-28T21:20:24.873Z,101857.50
2022-10-28T21:23:23.520Z,101846.78
2022-10-28T21:26:20.801Z,101843.50
2022-10-28T21:29:17.681Z,101846.94
2022-10-28T21:32:14.719Z,101858.34
2022-10-28T21:35:11.589Z,101861.97
2022-10-28T21:38:10.591Z,101856.88
2022-10-28T21:41:10.964Z,101867.94
2022-10-28T21:44:07.489Z,101871.63
2022-10-28T21:47:04.719Z,101876.28
2022-10-28T21:50:01.688Z,101866.25
2022-10-28T21:53:03.967Z,101878.59
2022-10-28T21:56:05.652Z,101871.25
2022-10-28T21:59:02.894Z,101881.88
2022-10-28T22:01:59.933Z,101874.38
2022-10-28T22:04:57.011Z,101858.94
2022-10-28T22:07:54.098Z,101849.28
2022-10-28T22:11:10.295Z,101867.94
2022-10-28T22:14:07.772Z,101870.91
2022-10-28T22:17:05.082Z,101879.69
2022-10-28T22:20:01.821Z,101859.00
2022-10-28T22:22:59.082Z,101861.50
2022-10-28T22:25:55.596Z,101860.38
2022-10-28T22:28:52.921Z,101852.66
2022-10-28T22:31:49.969Z,101864.13
2022-10-28T22:34:46.651Z,101865.66
2022-10-28T22:37:43.621Z,101875.91
2022-10-28T22:40:41.036Z,101874.78
2022-10-28T22:43:38.247Z,101867.94
2022-10-28T22:46:36.781Z,101860.97
2022-10-28T22:49:33.854Z,101863.81
2022-10-28T22:52:33.476Z,101860.50
2022-10-28T22:55:30.763Z,101861.31
2022-10-28T22:58:27.918Z,101871.47
2022-10-28T23:01:25.596Z,101864.88
2022-10-28T23:04:22.510Z,101871.41
2022-10-28T23:07:19.933Z,101878.72
2022-10-28T23:10:16.797Z,101876.34
2022-10-28T23:13:13.768Z,101871.94
2022-10-28T23:16:15.081Z,101871.81
2022-10-28T23:19:11.566Z,101860.75
2022-10-28T23:22:09.159Z,101880.66
2022-10-28T23:25:06.052Z,101893.16
2022-10-28T23:28:05.126Z,101895.63
2022-10-28T23:31:02.803Z,101889.34
2022-10-28T23:34:00.107Z,101889.25
2022-10-28T23:36:57.316Z,101909.53
2022-10-28T23:39:55.076Z,101918.00
2022-10-28T23:42:51.652Z,101917.53
2022-10-28T23:45:49.100Z,101907.34
2022-10-28T23:48:46.025Z,101923.06
2022-10-28T23:51:42.959Z,101908.44
2022-10-28T23:54:39.899Z,101894.88
2022-10-28T23:57:36.936Z,101896.72
